createdAt,value
2017-12-06T00:01:00.855Z,16.62
2017-12-06T00:03:27.627Z,15.75
2017-12-06T00:05:54.429Z,15.27
2017-12-06T00:08:21.226Z,19.33
2017-12-06T00:10:48.740Z,15.45
2017-12-06T00:13:21.413Z,14.30
2017-12-06T00:15:48.206Z,15.98
2017-12-06T00:18:14.995Z,16.73
2017-12-06T00:20:41.800Z,16.12
2017-12-06T00:23:08.652Z,15.93
2017-12-06T00:25:35.443Z,15.15
2017-12-06T00:28:02.283Z,15.52
2017-12-06T00:30:29.037Z,17.02
2017-12-06T00:32:55.869Z,15.15
2017-12-06T00:35:23.383Z,14.90
2017-12-06T00:37:50.153Z,17.35
2017-12-06T00:40:16.920Z,15.43
2017-12-06T00:42:43.714Z,15.88
2017-12-06T00:45:10.551Z,14.85
2017-12-06T00:47:37.362Z,14.13
2017-12-06T00:50:04.153Z,14.70
2017-12-06T00:52:31.834Z,14.20
2017-12-06T00:54:58.596Z,15.20
2017-12-06T00:57:25.403Z,21.92
2017-12-06T00:59:52.920Z,17.45
2017-12-06T01:02:19.734Z,16.60
2017-12-06T01:04:46.492Z,14.32
2017-12-06T01:07:13.265Z,15.00
2017-12-06T01:09:40.809Z,15.05
2017-12-06T01:12:07.568Z,15.50
2017-12-06T01:14:34.321Z,15.65
2017-12-06T01:17:01.113Z,15.35
2017-12-06T01:19:27.901Z,17.08
2017-12-06T01:21:54.673Z,17.48
2017-12-06T01:24:21.512Z,17.55
2017-12-06T01:26:49.000Z,15.68
2017-12-06T01:29:15.758Z,15.75
2017-12-06T01:31:42.522Z,19.40
2017-12-06T01:34:09.324Z,15.82
2017-12-06T01:36:36.080Z,16.62
2017-12-06T01:39:02.980Z,15.45
2017-12-06T01:41:29.796Z,18.33
2017-12-06T01:43:56.586Z,17.55
2017-12-06T01:46:23.383Z,15.90
2017-12-06T01:48:50.219Z,15.85
2017-12-06T01:51:17.743Z,15.63
2017-12-06T01:53:44.557Z,18.20
2017-12-06T01:56:11.393Z,16.98
2017-12-06T01:58:38.221Z,18.45
2017-12-06T02:01:05.019Z,17.17
2017-12-06T02:03:32.624Z,15.98
2017-12-06T02:05:59.459Z,17.17
2017-12-06T02:08:26.301Z,15.63
2017-12-06T02:10:53.173Z,26.52
2017-12-06T02:13:20.021Z,16.95
2017-12-06T02:15:46.902Z,17.87
2017-12-06T02:18:13.689Z,16.23
2017-12-06T02:20:40.586Z,16.85
2017-12-06T02:23:07.476Z,16.77
2017-12-06T02:25:34.300Z,20.42
2017-12-06T02:28:01.182Z,17.37
2017-12-06T02:30:27.984Z,19.73
2017-12-06T02:32:54.778Z,20.73
2017-12-06T02:35:21.596Z,19.00
2017-12-06T02:37:48.367Z,19.95
2017-12-06T02:40:34.037Z,19.30
2017-12-06T02:43:18.994Z,19.08
2017-12-06T02:45:45.865Z,19.52
2017-12-06T02:48:12.752Z,19.48
2017-12-06T02:50:39.571Z,22.42
2017-12-06T02:53:06.348Z,20.10
2017-12-06T02:55:33.180Z,18.30
2017-12-06T02:58:00.746Z,19.23
2017-12-06T03:00:27.572Z,18.75
2017-12-06T03:02:54.389Z,18.35
2017-12-06T03:05:21.231Z,17.55
2017-12-06T03:07:48.085Z,19.05
2017-12-06T03:10:14.844Z,17.48
2017-12-06T03:12:41.611Z,18.73
2017-12-06T03:15:08.420Z,19.50
2017-12-06T03:17:35.226Z,20.02
2017-12-06T03:20:02.037Z,23.08
2017-12-06T03:22:28.833Z,18.48
2017-12-06T03:24:56.360Z,22.05
2017-12-06T03:27:23.181Z,26.08
2017-12-06T03:29:49.962Z,22.87
2017-12-06T03:32:16.779Z,21.25
2017-12-06T03:34:44.283Z,23.83
2017-12-06T03:37:11.057Z,22.30
2017-12-06T03:39:37.851Z,23.02
2017-12-06T03:42:04.661Z,21.95
2017-12-06T03:44:31.456Z,22.95
2017-12-06T03:46:58.188Z,24.60
2017-12-06T03:49:24.976Z,22.35
2017-12-06T03:51:51.784Z,24.58
2017-12-06T03:54:19.295Z,26.90
2017-12-06T03:56:46.081Z,27.02
2017-12-06T03:59:12.894Z,25.02
2017-12-06T04:01:39.711Z,26.80
2017-12-06T04:04:06.477Z,25.60
2017-12-06T04:06:33.226Z,27.73
2017-12-06T04:09:00.041Z,27.58
2017-12-06T04:11:26.894Z,26.85
2017-12-06T04:13:53.687Z,28.05
2017-12-06T04:16:20.417Z,26.25
2017-12-06T04:18:47.314Z,26.60
2017-12-06T04:21:14.099Z,26.08
2017-12-06T04:23:40.869Z,23.67
2017-12-06T04:26:08.354Z,28.23
2017-12-06T04:28:35.890Z,26.27
2017-12-06T04:31:02.677Z,27.75
2017-12-06T04:33:29.463Z,24.60
2017-12-06T04:35:56.222Z,28.05
2017-12-06T04:38:23.017Z,25.67
2017-12-06T04:40:49.853Z,23.70
2017-12-06T04:43:16.633Z,26.00
2017-12-06T04:45:43.463Z,27.15
2017-12-06T04:48:10.234Z,22.15
2017-12-06T04:50:37.061Z,30.20
2017-12-06T04:53:04.592Z,31.05
2017-12-06T04:55:31.394Z,27.20
2017-12-06T04:57:58.925Z,26.27
2017-12-06T05:00:25.717Z,24.25
2017-12-06T05:02:52.527Z,26.02
2017-12-06T05:05:19.309Z,26.95
2017-12-06T05:07:46.107Z,23.87
2017-12-06T05:10:12.882Z,25.88
2017-12-06T05:12:40.399Z,23.50
2017-12-06T05:15:07.208Z,24.00
2017-12-06T05:17:35.650Z,24.55
2017-12-06T05:20:02.477Z,28.73
2017-12-06T05:22:30.007Z,25.42
2017-12-06T05:24:56.819Z,27.60
2017-12-06T05:27:23.636Z,25.20
2017-12-06T05:29:50.437Z,20.10
2017-12-06T05:32:17.994Z,27.95
2017-12-06T05:34:44.792Z,25.10
2017-12-06T05:37:11.560Z,25.48
2017-12-06T05:39:38.441Z,27.10
2017-12-06T05:42:05.208Z,26.95
2017-12-06T05:44:31.979Z,27.13
2017-12-06T05:46:58.745Z,26.70
2017-12-06T05:49:25.501Z,25.90
2017-12-06T05:51:52.299Z,23.73
2017-12-06T05:54:19.800Z,28.20
2017-12-06T05:56:46.624Z,25.70
2017-12-06T05:59:14.157Z,24.65
2017-12-06T06:01:40.950Z,25.27
2017-12-06T06:04:07.778Z,23.58
2017-12-06T06:06:34.558Z,24.77
2017-12-06T06:09:01.350Z,23.27
2017-12-06T06:11:28.889Z,24.23
2017-12-06T06:13:55.681Z,25.00
2017-12-06T06:16:23.377Z,25.65
2017-12-06T06:18:50.155Z,25.92
2017-12-06T06:21:16.972Z,27.58
2017-12-06T06:23:44.524Z,21.95
2017-12-06T06:26:11.329Z,24.90
2017-12-06T06:28:38.113Z,23.30
2017-12-06T06:31:04.895Z,22.05
2017-12-06T06:33:31.712Z,22.33
2017-12-06T06:35:58.485Z,22.92
2017-12-06T06:38:25.251Z,21.60
2017-12-06T06:40:52.034Z,22.77
2017-12-06T06:43:18.824Z,30.30
2017-12-06T06:45:46.389Z,20.95
2017-12-06T06:48:13.168Z,17.70
2017-12-06T06:50:40.720Z,20.27
2017-12-06T06:53:08.320Z,20.35
2017-12-06T06:55:35.894Z,20.02
2017-12-06T06:58:02.656Z,19.75
2017-12-06T07:00:29.482Z,18.60
2017-12-06T07:02:56.265Z,19.33
2017-12-06T07:05:23.082Z,17.92
2017-12-06T07:07:49.841Z,19.60
2017-12-06T07:10:16.661Z,17.80
2017-12-06T07:12:44.198Z,17.87
2017-12-06T07:15:11.024Z,17.90
2017-12-06T07:17:37.774Z,19.90
2017-12-06T07:20:04.553Z,17.23
2017-12-06T07:22:31.373Z,21.10
2017-12-06T07:24:58.952Z,17.25
2017-12-06T07:27:25.774Z,17.87
2017-12-06T07:29:52.585Z,21.85
2017-12-06T07:32:20.166Z,18.73
2017-12-06T07:34:47.033Z,14.40
2017-12-06T07:37:13.877Z,22.50
2017-12-06T07:39:41.438Z,18.62
2017-12-06T07:42:08.297Z,20.67
2017-12-06T07:44:35.122Z,19.00
2017-12-06T07:47:01.914Z,17.08
2017-12-06T07:49:28.711Z,18.48
2017-12-06T07:51:55.469Z,19.97
2017-12-06T07:54:23.037Z,18.10
2017-12-06T07:56:50.566Z,14.82
2017-12-06T07:59:17.344Z,15.73
2017-12-06T08:01:44.165Z,16.10
2017-12-06T08:04:10.962Z,15.77
2017-12-06T08:06:37.762Z,13.55
2017-12-06T08:09:05.295Z,12.30
2017-12-06T08:11:32.125Z,14.80
2017-12-06T08:13:58.919Z,16.13
2017-12-06T08:16:25.704Z,17.15
2017-12-06T08:18:52.481Z,15.43
2017-12-06T08:21:20.052Z,15.02
2017-12-06T08:23:46.914Z,10.98
2017-12-06T08:26:13.755Z,13.52
2017-12-06T08:28:40.552Z,12.43
2017-12-06T08:31:07.363Z,12.88
2017-12-06T08:33:34.170Z,13.53
2017-12-06T08:36:01.036Z,11.90
2017-12-06T08:38:27.888Z,15.35
2017-12-06T08:40:54.734Z,11.57
2017-12-06T08:43:22.262Z,10.18
2017-12-06T08:45:49.073Z,12.02
2017-12-06T08:48:16.662Z,11.60
2017-12-06T08:50:44.207Z,10.02
2017-12-06T08:53:11.069Z,9.35
2017-12-06T08:55:37.854Z,10.40
2017-12-06T08:58:04.700Z,9.25
2017-12-06T09:00:31.555Z,9.40
2017-12-06T09:02:58.376Z,14.03
2017-12-06T09:05:25.180Z,12.35
2017-12-06T09:07:51.969Z,11.45
2017-12-06T09:10:18.810Z,11.20
2017-12-06T09:12:46.399Z,10.43
2017-12-06T09:15:13.960Z,10.75
2017-12-06T09:17:40.767Z,12.25
2017-12-06T09:20:07.551Z,10.13
2017-12-06T09:22:34.355Z,10.07
2017-12-06T09:25:01.197Z,9.93
2017-12-06T09:27:28.792Z,11.53
2017-12-06T09:29:56.353Z,9.60
2017-12-06T09:32:23.168Z,11.40
2017-12-06T09:34:49.999Z,11.07
2017-12-06T09:37:16.813Z,10.00
2017-12-06T09:39:43.638Z,15.40
2017-12-06T09:42:10.430Z,10.57
2017-12-06T09:44:37.282Z,8.53
2017-12-06T09:47:04.111Z,11.23
2017-12-06T09:49:30.957Z,10.63
2017-12-06T09:51:58.463Z,12.50
2017-12-06T09:54:25.238Z,7.72
2017-12-06T09:56:52.017Z,11.57
2017-12-06T09:59:18.848Z,9.20
2017-12-06T10:01:45.637Z,9.30
2017-12-06T10:04:12.424Z,8.70
2017-12-06T10:06:39.222Z,12.10
2017-12-06T10:09:06.008Z,26.23
2017-12-06T10:11:32.779Z,41.83
2017-12-06T10:13:59.635Z,10.17
2017-12-06T10:16:26.380Z,13.07
2017-12-06T10:18:53.234Z,13.30
2017-12-06T10:21:20.055Z,17.63
2017-12-06T10:23:47.616Z,14.02
2017-12-06T10:26:14.429Z,10.20
2017-12-06T10:28:41.228Z,40.47
2017-12-06T10:31:08.026Z,31.17
2017-12-06T10:33:34.852Z,82.23
2017-12-06T10:36:01.680Z,15.30
2017-12-06T10:38:28.483Z,54.13
2017-12-06T10:40:55.229Z,28.60
2017-12-06T10:43:22.034Z,22.17
2017-12-06T10:45:48.889Z,14.27
2017-12-06T10:48:15.711Z,14.53
2017-12-06T10:50:42.517Z,12.02
2017-12-06T10:53:09.318Z,9.10
2017-12-06T10:55:36.096Z,10.97
2017-12-06T10:58:02.870Z,14.70
2017-12-06T11:00:30.450Z,19.10
2017-12-06T11:02:58.002Z,10.30
2017-12-06T11:05:24.865Z,12.13
2017-12-06T11:07:51.659Z,16.33
2017-12-06T11:10:19.175Z,10.20
2017-12-06T11:12:45.937Z,8.93
2017-12-06T11:15:12.740Z,10.05
2017-12-06T11:17:40.314Z,10.60
2017-12-06T11:20:07.096Z,13.30
2017-12-06T11:22:33.867Z,17.53
2017-12-06T11:25:00.631Z,22.57
2017-12-06T11:27:27.418Z,23.87
2017-12-06T11:29:54.185Z,13.23
2017-12-06T11:32:20.963Z,13.23
2017-12-06T11:34:47.800Z,12.20
2017-12-06T11:37:14.612Z,11.10
2017-12-06T11:39:41.546Z,9.63
2017-12-06T11:42:09.082Z,11.60
2017-12-06T11:44:35.864Z,12.57
2017-12-06T11:47:02.649Z,12.50
2017-12-06T11:49:29.402Z,12.57
2017-12-06T11:51:56.213Z,14.73
2017-12-06T11:54:22.998Z,13.07
2017-12-06T11:56:49.803Z,11.70
2017-12-06T11:59:17.366Z,18.43
2017-12-06T12:01:44.199Z,24.10
2017-12-06T12:04:11.808Z,15.07
2017-12-06T12:06:38.583Z,14.50
2017-12-06T12:09:06.195Z,12.97
2017-12-06T12:11:32.938Z,11.37
2017-12-06T12:13:59.744Z,22.80
2017-12-06T12:16:26.620Z,19.60
2017-12-06T12:18:53.409Z,19.00
2017-12-06T12:21:20.950Z,15.40
2017-12-06T12:23:47.724Z,11.33
2017-12-06T12:26:14.498Z,14.93
2017-12-06T12:28:42.006Z,13.57
2017-12-06T12:31:08.758Z,9.50
2017-12-06T12:33:35.517Z,10.67
2017-12-06T12:36:02.284Z,11.93
2017-12-06T12:38:29.167Z,11.10
2017-12-06T12:40:56.020Z,13.53
2017-12-06T12:43:22.885Z,11.87
2017-12-06T12:45:51.480Z,14.00
2017-12-06T12:48:18.305Z,12.40
2017-12-06T12:50:45.889Z,14.60
2017-12-06T12:53:12.804Z,13.27
2017-12-06T12:55:39.679Z,15.73
2017-12-06T12:58:06.532Z,14.93
2017-12-06T13:00:33.408Z,15.60
2017-12-06T13:03:01.051Z,13.00
2017-12-06T13:05:27.941Z,12.97
2017-12-06T13:07:54.802Z,16.20
2017-12-06T13:10:22.405Z,12.00
2017-12-06T13:12:50.006Z,13.50
2017-12-06T13:15:16.858Z,15.30
2017-12-06T13:17:43.708Z,15.13
2017-12-06T13:20:11.320Z,13.97
2017-12-06T13:22:38.245Z,14.90
2017-12-06T13:25:08.238Z,13.47
2017-12-06T13:27:35.094Z,15.83
2017-12-06T13:30:02.001Z,13.47
2017-12-06T13:32:29.595Z,15.50
2017-12-06T13:34:56.441Z,17.13
2017-12-06T13:37:24.036Z,12.27
2017-12-06T13:39:50.878Z,16.70
2017-12-06T13:42:18.486Z,13.93
2017-12-06T13:44:45.484Z,14.30
2017-12-06T13:47:12.391Z,13.23
2017-12-06T13:49:40.013Z,11.30
2017-12-06T13:52:07.000Z,13.53
2017-12-06T13:54:33.991Z,12.10
2017-12-06T13:57:01.684Z,11.97
2017-12-06T13:59:29.251Z,15.80
2017-12-06T14:01:56.866Z,13.03
2017-12-06T14:04:23.747Z,21.83
2017-12-06T14:06:51.419Z,12.60
2017-12-06T14:09:18.365Z,19.33
2017-12-06T14:11:45.943Z,17.30
2017-12-06T14:14:12.862Z,22.17
2017-12-06T14:16:39.713Z,21.00
2017-12-06T14:19:06.620Z,42.93
2017-12-06T14:21:33.633Z,19.17
2017-12-06T14:24:00.589Z,16.73
2017-12-06T14:26:27.555Z,16.70
2017-12-06T14:28:54.448Z,15.50
2017-12-06T14:31:21.282Z,16.00
2017-12-06T14:33:48.160Z,14.23
2017-12-06T14:36:15.022Z,18.50
2017-12-06T14:38:41.863Z,13.97
2017-12-06T14:41:08.723Z,15.17
2017-12-06T14:43:35.529Z,14.77
2017-12-06T14:46:03.175Z,13.13
2017-12-06T14:48:30.072Z,11.90
2017-12-06T14:50:57.646Z,12.00
2017-12-06T14:53:25.289Z,18.40
2017-12-06T14:55:52.174Z,15.60
2017-12-06T14:58:19.863Z,12.63
2017-12-06T15:00:47.453Z,14.03
2017-12-06T15:03:24.808Z,11.47
2017-12-06T15:05:51.795Z,11.17
2017-12-06T15:08:18.703Z,15.37
2017-12-06T15:10:45.568Z,13.00
2017-12-06T15:13:12.463Z,11.00
2017-12-06T16:10:21.025Z,52.17
2017-12-06T16:12:47.923Z,19.17
2017-12-06T16:15:14.803Z,33.57
2017-12-06T16:17:42.452Z,20.50
2017-12-06T16:20:09.383Z,18.80
2017-12-06T16:22:36.398Z,62.70
2017-12-06T16:25:03.392Z,36.87
2017-12-06T16:27:30.986Z,34.43
2017-12-06T16:29:57.917Z,21.97
2017-12-06T16:32:25.526Z,42.77
2017-12-06T16:35:10.570Z,26.23
2017-12-06T16:37:38.868Z,43.37
2017-12-06T16:40:06.489Z,27.00
2017-12-06T16:42:33.320Z,26.37
2017-12-06T16:45:00.535Z,55.07
2017-12-06T16:47:27.485Z,66.63
2017-12-06T16:49:54.481Z,39.13
2017-12-06T16:52:21.421Z,72.90
2017-12-06T16:54:48.282Z,48.37
2017-12-06T16:57:15.181Z,79.37
2017-12-06T16:59:42.851Z,40.17
2017-12-06T17:02:09.754Z,38.30
2017-12-06T17:04:36.626Z,42.53
2017-12-06T17:07:05.368Z,45.00
2017-12-06T17:09:32.228Z,91.30
2017-12-06T17:11:59.083Z,33.33
2017-12-06T17:14:26.395Z,33.97
2017-12-06T17:16:53.284Z,23.47
2017-12-06T17:19:20.183Z,21.23
2017-12-06T17:21:47.067Z,24.70
2017-12-06T17:24:13.924Z,25.40
2017-12-06T17:26:40.790Z,20.43
2017-12-06T17:29:25.922Z,26.57
2017-12-06T17:31:53.517Z,19.93
2017-12-06T17:34:20.364Z,25.53
2017-12-06T17:36:47.234Z,25.33
2017-12-06T17:39:14.078Z,22.67
2017-12-06T17:41:40.977Z,19.50
2017-12-06T17:44:07.822Z,22.40
2017-12-06T17:46:34.683Z,22.40
2017-12-06T17:49:01.577Z,24.10
2017-12-06T17:51:28.467Z,22.30
2017-12-06T17:53:55.833Z,22.57
2017-12-06T17:56:23.437Z,23.12
2017-12-06T17:58:50.332Z,26.43
2017-12-06T18:01:17.212Z,23.33
2017-12-06T18:03:44.127Z,23.43
2017-12-06T18:06:11.194Z,26.10
2017-12-06T18:08:38.100Z,31.00
2017-12-06T18:11:05.035Z,26.67
2017-12-06T18:13:31.928Z,24.47
2017-12-06T18:15:59.700Z,24.63
2017-12-06T18:18:27.636Z,34.50
2017-12-06T18:20:54.590Z,37.20
2017-12-06T18:23:21.569Z,30.30
2017-12-06T18:25:49.750Z,32.77
2017-12-06T18:28:16.708Z,32.17
2017-12-06T18:30:45.214Z,55.07
2017-12-06T18:33:12.889Z,51.00
2017-12-06T18:35:40.027Z,42.47
2017-12-06T18:38:06.970Z,23.73
2017-12-06T18:40:33.904Z,30.63
2017-12-06T18:43:00.707Z,65.70
2017-12-06T18:45:28.020Z,31.93
2017-12-06T18:47:56.149Z,27.40
2017-12-06T18:50:24.937Z,24.27
2017-12-06T18:52:54.465Z,24.70
2017-12-06T18:55:23.226Z,28.03
2017-12-06T18:57:51.310Z,38.93
2017-12-06T19:00:21.849Z,31.00
2017-12-06T19:02:49.450Z,30.70
2017-12-06T19:05:17.443Z,26.00
2017-12-06T19:07:44.314Z,28.53
2017-12-06T19:10:11.381Z,25.77
2017-12-06T19:12:38.329Z,24.33
2017-12-06T19:15:05.973Z,24.03
2017-12-06T19:17:32.817Z,25.50
2017-12-06T19:19:59.722Z,25.13
2017-12-06T19:22:27.757Z,27.73
2017-12-06T19:24:55.466Z,22.43
2017-12-06T19:27:22.655Z,25.13
2017-12-06T19:29:50.739Z,23.33
2017-12-06T19:32:19.359Z,26.30
2017-12-06T19:34:47.386Z,25.47
2017-12-06T19:37:14.236Z,24.50
2017-12-06T19:39:43.045Z,23.35
2017-12-06T19:42:11.907Z,22.97
2017-12-06T19:44:40.118Z,23.70
2017-12-06T19:47:09.535Z,27.30
2017-12-06T19:49:37.822Z,24.47
2017-12-06T19:52:06.750Z,25.70
2017-12-06T19:54:35.122Z,21.85
2017-12-06T19:57:03.939Z,25.07
2017-12-06T19:59:32.792Z,24.70
2017-12-06T20:02:01.522Z,21.17
2017-12-06T20:04:30.857Z,25.33
2017-12-06T20:06:59.620Z,25.17
2017-12-06T20:09:28.582Z,23.53
2017-12-06T20:11:58.154Z,25.73
2017-12-06T20:14:26.994Z,24.53
2017-12-06T20:16:56.094Z,27.13
2017-12-06T20:19:25.056Z,26.13
2017-12-06T20:22:01.001Z,28.13
2017-12-06T20:24:29.927Z,25.30
2017-12-06T20:27:00.123Z,28.73
2017-12-06T20:29:29.015Z,25.30
2017-12-06T20:31:57.891Z,27.00
2017-12-06T20:34:27.736Z,23.37
2017-12-06T20:36:56.703Z,22.47
2017-12-06T20:39:26.145Z,25.10
2017-12-06T20:41:55.492Z,23.20
2017-12-06T20:44:24.373Z,23.30
2017-12-06T20:46:53.544Z,27.60
2017-12-06T20:49:22.502Z,23.25
2017-12-06T20:51:51.408Z,24.87
2017-12-06T20:54:22.190Z,23.07
2017-12-06T20:56:51.290Z,20.87
2017-12-06T20:59:20.180Z,20.27
2017-12-06T21:01:49.038Z,24.53
2017-12-06T21:04:18.158Z,20.67
2017-12-06T21:06:47.177Z,22.80
2017-12-06T21:09:16.028Z,22.93
2017-12-06T21:11:44.649Z,25.80
2017-12-06T21:14:13.561Z,21.40
2017-12-06T21:16:41.510Z,31.90
2017-12-06T21:19:10.004Z,17.53
2017-12-06T21:21:38.381Z,17.50
2017-12-06T21:24:06.560Z,17.67
2017-12-06T21:26:34.787Z,21.47
2017-12-06T21:29:01.974Z,17.60
2017-12-06T21:31:28.811Z,19.20
2017-12-06T21:33:55.954Z,18.60
2017-12-06T21:36:22.873Z,17.97
2017-12-06T21:38:49.879Z,18.60
2017-12-06T21:41:17.486Z,15.25
2017-12-06T21:43:45.645Z,17.13
2017-12-06T21:46:13.270Z,17.87
2017-12-06T21:48:41.536Z,17.60
2017-12-06T21:51:08.495Z,15.13
2017-12-06T21:53:35.530Z,15.10
2017-12-06T21:56:03.603Z,14.30
2017-12-06T21:58:30.623Z,17.73
2017-12-06T22:00:57.573Z,14.77
2017-12-06T22:03:24.477Z,16.10
2017-12-06T22:05:51.421Z,11.83
2017-12-06T22:08:19.075Z,15.27
2017-12-06T22:10:46.033Z,12.13
2017-12-06T22:13:12.960Z,10.27
2017-12-06T22:15:40.035Z,11.12
2017-12-06T22:18:06.892Z,11.90
2017-12-06T22:20:33.721Z,10.50
2017-12-06T22:23:01.301Z,13.50
2017-12-06T22:25:28.114Z,10.38
2017-12-06T22:27:54.945Z,9.00
2017-12-06T22:30:21.761Z,10.93
2017-12-06T22:32:48.562Z,7.37
2017-12-06T22:35:15.392Z,9.88
2017-12-06T22:37:42.930Z,8.15
2017-12-06T22:40:09.751Z,8.40
2017-12-06T22:42:36.550Z,10.00
2017-12-06T22:45:15.290Z,7.90
2017-12-06T22:47:42.217Z,6.90
2017-12-06T22:50:09.112Z,5.47
2017-12-06T22:52:36.011Z,5.03
2017-12-06T22:55:02.965Z,8.47
2017-12-06T22:57:29.855Z,5.47
2017-12-06T22:59:56.772Z,6.15
2017-12-06T23:02:23.662Z,7.30
2017-12-06T23:04:50.552Z,5.93
2017-12-06T23:07:17.425Z,5.90
2017-12-06T23:09:44.355Z,5.80
2017-12-06T23:12:11.249Z,6.03
2017-12-06T23:14:38.120Z,4.87
2017-12-06T23:17:05.054Z,5.95
2017-12-06T23:19:31.851Z,7.85
2017-12-06T23:21:58.713Z,6.80
2017-12-06T23:24:26.253Z,5.83
2017-12-06T23:26:53.076Z,6.65
2017-12-06T23:29:19.904Z,6.20
2017-12-06T23:31:46.798Z,7.47
2017-12-06T23:34:13.546Z,5.17
2017-12-06T23:36:40.400Z,6.78
2017-12-06T23:39:07.270Z,7.50
2017-12-06T23:41:34.093Z,5.80
2017-12-06T23:44:01.733Z,9.95
2017-12-06T23:46:28.514Z,8.07
2017-12-06T23:48:56.032Z,6.43
2017-12-06T23:51:22.845Z,6.85
2017-12-06T23:53:50.350Z,8.40
2017-12-06T23:56:17.180Z,6.62
2017-12-06T23:58:44.679Z,7.25
